createdAt,value
2022-09-18T00:01:50.687Z,11.80
2022-09-18T00:04:18.654Z,11.80
2022-09-18T00:06:51.385Z,11.80
2022-09-18T00:09:19.675Z,11.80
2022-09-18T00:12:04.993Z,11.70
2022-09-18T00:14:39.049Z,11.70
2022-09-18T00:17:09.398Z,11.70
2022-09-18T00:22:37.586Z,11.70
2022-09-18T00:25:09.506Z,11.70
2022-09-18T00:30:50.346Z,11.70
2022-09-18T00:33:18.644Z,11.70
2022-09-18T00:35:57.860Z,11.80
2022-09-18T00:38:34.425Z,11.70
2022-09-18T00:41:06.097Z,11.70
2022-09-18T00:43:39.983Z,11.70
2022-09-18T00:46:32.158Z,11.70
2022-09-18T00:52:01.770Z,11.70
2022-09-18T01:00:13.725Z,11.70
2022-09-18T01:09:01.982Z,11.60
2022-09-18T01:15:46.733Z,11.50
2022-09-18T01:18:33.075Z,11.50
2022-09-18T01:31:10.450Z,11.30
2022-09-18T01:33:55.321Z,11.30
2022-09-18T01:39:27.093Z,11.30
2022-09-18T01:41:58.043Z,11.30
2022-09-18T01:44:34.211Z,11.30
2022-09-18T01:47:08.451Z,11.30
2022-09-18T01:49:46.676Z,11.30
2022-09-18T01:52:40.499Z,11.30
2022-09-18T01:55:16.764Z,11.30
2022-09-18T01:58:03.925Z,11.30
2022-09-18T02:00:35.391Z,11.30
2022-09-18T02:03:19.678Z,11.30
2022-09-18T02:05:54.256Z,11.30
2022-09-18T02:08:45.991Z,11.30
2022-09-18T02:11:16.155Z,11.30
2022-09-18T02:13:58.943Z,11.30
2022-09-18T02:16:34.652Z,11.30
2022-09-18T02:19:12.114Z,11.30
2022-09-18T02:21:47.507Z,11.30
2022-09-18T02:24:17.798Z,11.30
2022-09-18T02:27:00.595Z,11.30
2022-09-18T02:29:33.966Z,11.20
2022-09-18T02:32:06.693Z,11.20
2022-09-18T02:37:32.002Z,11.20
2022-09-18T02:40:09.139Z,11.20
2022-09-18T02:42:42.885Z,11.10
2022-09-18T02:45:36.872Z,11.10
2022-09-18T02:48:14.340Z,11.00
2022-09-18T02:50:51.569Z,10.90
2022-09-18T02:54:05.882Z,10.90
2022-09-18T02:56:45.156Z,10.90
2022-09-18T02:59:34.589Z,10.90
2022-09-18T03:02:30.872Z,10.90
2022-09-18T03:19:10.796Z,10.70
2022-09-18T03:22:15.339Z,10.70
2022-09-18T03:25:04.800Z,10.60
2022-09-18T03:27:41.324Z,10.50
2022-09-18T03:30:28.136Z,10.50
2022-09-18T03:36:00.107Z,10.40
2022-09-18T03:38:30.547Z,10.40
2022-09-18T03:48:29.556Z,10.30
2022-09-18T03:51:26.974Z,10.30
2022-09-18T04:10:17.459Z,10.10
2022-09-18T04:13:42.243Z,10.10
2022-09-18T04:19:24.941Z,10.10
2022-09-18T04:25:19.250Z,10.10
2022-09-18T04:27:59.295Z,10.00
2022-09-18T04:33:40.829Z,10.10
2022-09-18T04:36:14.600Z,10.10
2022-09-18T04:38:50.467Z,10.00
2022-09-18T04:41:23.452Z,10.00
2022-09-18T04:44:23.940Z,10.10
2022-09-18T04:49:47.643Z,10.00
2022-09-18T04:52:31.754Z,10.00
2022-09-18T07:12:27.974Z,11.20
2022-09-18T07:15:06.699Z,11.20
2022-09-18T07:17:37.383Z,11.20
2022-09-18T07:23:20.586Z,11.30
2022-09-18T07:26:04.917Z,11.30
2022-09-18T08:04:24.013Z,11.70
2022-09-18T08:07:01.705Z,11.80
2022-09-18T08:09:34.752Z,11.90
2022-09-18T08:15:07.845Z,11.90
2022-09-18T08:18:31.333Z,11.90
2022-09-18T08:24:57.596Z,11.90
2022-09-18T08:27:25.064Z,11.90
2022-09-18T08:29:59.756Z,11.90
2022-09-18T08:32:29.899Z,12.00
2022-09-18T08:34:57.584Z,12.20
2022-09-18T08:37:25.100Z,12.30
2022-09-18T08:39:52.550Z,12.30
2022-09-18T08:42:38.575Z,12.40
2022-09-18T08:45:23.223Z,12.40
2022-09-18T08:48:04.635Z,12.40
2022-09-18T08:50:38.719Z,12.40
2022-09-18T08:53:32.365Z,12.50
2022-09-18T09:00:43.843Z,12.50
2022-09-18T09:03:29.962Z,12.60
2022-09-18T09:06:13.801Z,12.50
2022-09-18T09:09:12.272Z,12.60
2022-09-18T09:12:34.789Z,12.60
2022-09-18T09:15:23.252Z,12.70
2022-09-18T09:18:12.385Z,12.80
2022-09-18T09:22:06.920Z,12.80
2022-09-18T09:24:27.104Z,12.90
2022-09-18T09:27:43.375Z,12.90
2022-09-18T09:30:50.520Z,12.90
2022-09-18T09:33:28.327Z,13.00
2022-09-18T09:36:05.224Z,13.20
2022-09-18T09:39:16.463Z,13.30
2022-09-18T09:46:55.953Z,13.20
2022-09-18T09:49:39.567Z,13.00
2022-09-18T09:53:19.577Z,13.00
2022-09-18T10:05:04.085Z,14.20
2022-09-18T10:46:32.871Z,13.90
2022-09-18T10:52:55.518Z,13.60
2022-09-18T10:55:26.935Z,13.50
2022-09-18T11:01:50.779Z,13.20
2022-09-18T11:04:53.415Z,13.10
2022-09-18T11:10:47.109Z,12.80
2022-09-18T11:13:24.682Z,12.60
2022-09-18T11:16:04.014Z,12.60
2022-09-18T11:18:43.013Z,12.50
2022-09-18T11:21:23.819Z,12.50
2022-09-18T11:24:20.040Z,12.60
2022-09-18T11:27:03.283Z,12.90
2022-09-18T11:29:40.562Z,13.10
2022-09-18T11:52:19.354Z,14.40
2022-09-18T11:54:55.202Z,14.00
2022-09-18T11:57:48.012Z,13.80
2022-09-18T12:00:53.146Z,13.60
2022-09-18T12:16:39.156Z,13.00
2022-09-18T12:19:32.506Z,13.20
2022-09-18T12:25:31.359Z,13.70
2022-09-18T12:28:42.839Z,13.90
2022-09-18T12:31:50.434Z,14.00
2022-09-18T12:34:59.863Z,14.20
2022-09-18T12:37:39.523Z,14.40
2022-09-18T12:41:08.301Z,14.40
2022-09-18T12:44:04.513Z,14.40
2022-09-18T12:47:20.284Z,14.50
2022-09-18T12:57:18.126Z,14.20
2022-09-18T13:00:12.778Z,14.10
2022-09-18T13:03:30.183Z,14.10
2022-09-18T13:06:42.689Z,14.00
2022-09-18T13:10:06.430Z,14.10
2022-09-18T13:13:24.827Z,14.30
2022-09-18T13:16:35.497Z,14.50
2022-09-18T13:20:11.505Z,14.70
2022-09-18T13:22:58.990Z,14.80
2022-09-18T13:25:52.439Z,14.80
2022-09-18T13:29:46.347Z,14.90
2022-09-18T13:32:16.236Z,14.90
2022-09-18T13:35:19.131Z,14.70
2022-09-18T13:38:57.568Z,14.70
2022-09-18T13:45:41.616Z,14.50
2022-09-18T13:49:00.330Z,14.40
2022-09-18T13:51:38.342Z,14.30
2022-09-18T13:54:33.027Z,14.30
2022-09-18T13:57:17.527Z,14.20
2022-09-18T14:00:06.130Z,14.30
2022-09-18T14:03:17.549Z,14.20
2022-09-18T14:05:48.387Z,14.20
2022-09-18T14:08:37.363Z,14.10
2022-09-18T14:11:16.110Z,14.10
2022-09-18T14:13:56.821Z,14.10
2022-09-18T14:17:31.741Z,13.90
2022-09-18T14:20:21.920Z,14.00
2022-09-18T14:23:49.984Z,14.00
2022-09-18T14:30:55.096Z,14.00
2022-09-18T14:33:24.091Z,13.90
2022-09-18T14:36:14.762Z,13.90
2022-09-18T14:38:57.737Z,13.90
2022-09-18T15:03:53.077Z,13.50
2022-09-18T15:06:55.224Z,13.40
2022-09-18T15:09:58.305Z,13.40
2022-09-18T15:12:37.979Z,13.40
2022-09-18T15:21:33.358Z,13.20
2022-09-18T15:24:16.112Z,13.20
2022-09-18T15:26:52.231Z,13.10
2022-09-18T15:29:37.191Z,13.00
2022-09-18T15:32:06.332Z,13.00
2022-09-18T15:34:55.214Z,12.90
2022-09-18T15:37:43.734Z,12.90
2022-09-18T15:47:03.232Z,12.90
2022-09-18T15:49:50.834Z,12.80
2022-09-18T16:29:17.885Z,13.00
2022-09-18T16:31:59.432Z,12.90
2022-09-18T16:34:38.948Z,12.90
2022-09-18T16:37:08.678Z,12.90
2022-09-18T16:39:35.920Z,12.80
2022-09-18T16:42:17.258Z,12.80
2022-09-18T16:44:51.745Z,12.80
2022-09-18T16:47:35.686Z,12.80
2022-09-18T16:50:03.698Z,12.80
2022-09-18T16:53:03.467Z,12.80
2022-09-18T16:56:34.190Z,12.80
2022-09-18T17:00:32.449Z,12.70
2022-09-18T17:03:02.100Z,12.80
2022-09-18T17:08:13.777Z,12.60
2022-09-18T17:11:03.769Z,12.60
2022-09-18T17:13:31.172Z,12.50
2022-09-18T17:16:10.201Z,12.50
2022-09-18T17:18:39.889Z,12.50
2022-09-18T17:21:07.511Z,12.50
2022-09-18T17:23:42.485Z,12.40
2022-09-18T17:26:11.246Z,12.40
2022-09-18T17:28:38.983Z,12.40
2022-09-18T17:33:56.714Z,12.30
2022-09-18T17:36:24.485Z,12.30
2022-09-18T17:38:52.322Z,12.30
2022-09-18T17:41:25.734Z,12.30
2022-09-18T17:43:53.929Z,12.30
2022-09-18T17:46:21.714Z,12.30
2022-09-18T17:48:49.358Z,12.30
2022-09-18T17:51:28.732Z,12.20
2022-09-18T17:54:05.789Z,12.20
2022-09-18T17:56:34.488Z,12.10
2022-09-18T17:59:07.764Z,12.10
2022-09-18T18:01:51.733Z,12.10
2022-09-18T18:04:19.389Z,12.00
2022-09-18T18:07:14.815Z,12.10
2022-09-18T18:09:45.515Z,12.00
2022-09-18T18:12:27.362Z,12.00
2022-09-18T18:14:54.861Z,12.00
2022-09-18T18:17:22.230Z,12.00
2022-09-18T18:19:58.534Z,12.00
2022-09-18T18:22:31.838Z,12.00
2022-09-18T18:25:19.077Z,12.00
2022-09-18T18:27:58.795Z,11.90
2022-09-18T18:30:29.217Z,11.90
2022-09-18T18:33:19.995Z,11.90
2022-09-18T18:35:47.791Z,11.80
2022-09-18T18:38:17.960Z,11.80
2022-09-18T18:41:03.929Z,11.80
2022-09-18T18:43:37.373Z,11.80
2022-09-18T18:46:11.347Z,11.80
2022-09-18T18:48:44.671Z,11.80
2022-09-18T18:51:16.979Z,11.80
2022-09-18T18:54:07.483Z,11.80
2022-09-18T18:57:44.356Z,11.80
2022-09-18T19:00:07.632Z,11.80
2022-09-18T19:02:39.289Z,11.80
2022-09-18T19:05:25.417Z,11.80
2022-09-18T19:07:53.030Z,11.80
2022-09-18T19:10:30.053Z,11.70
2022-09-18T19:13:03.763Z,11.70
2022-09-18T19:15:38.512Z,11.70
2022-09-18T19:18:08.455Z,11.70
2022-09-18T19:20:35.958Z,11.70
2022-09-18T19:26:00.302Z,11.60
2022-09-18T19:28:29.472Z,11.60
2022-09-18T19:31:04.468Z,11.60
2022-09-18T19:33:47.771Z,11.60
2022-09-18T19:36:34.981Z,11.50
2022-09-18T19:39:04.896Z,11.50
2022-09-18T19:42:03.907Z,11.50
2022-09-18T19:45:46.684Z,11.50
2022-09-18T19:49:06.044Z,11.50
2022-09-18T19:51:41.331Z,11.50
2022-09-18T19:54:08.808Z,11.50
2022-09-18T19:56:42.876Z,11.40
2022-09-18T19:59:44.579Z,11.50
2022-09-18T20:02:21.152Z,11.40
2022-09-18T20:04:54.715Z,11.40
2022-09-18T20:07:22.018Z,11.40
2022-09-18T20:12:57.285Z,11.40
2022-09-18T20:15:25.025Z,11.40
2022-09-18T20:18:09.344Z,11.40
2022-09-18T20:20:38.975Z,11.40
2022-09-18T20:23:07.667Z,11.40
2022-09-18T20:25:38.138Z,11.40
2022-09-18T20:28:14.357Z,11.40
2022-09-18T20:31:03.555Z,11.50
2022-09-18T20:33:31.742Z,11.40
2022-09-18T20:36:11.766Z,11.40
2022-09-18T20:41:49.926Z,11.40
2022-09-18T20:44:19.872Z,11.40
2022-09-18T20:46:56.965Z,11.50
2022-09-18T20:49:27.935Z,11.50
2022-09-18T20:51:58.220Z,11.40
2022-09-18T20:54:35.443Z,11.40
2022-09-18T20:57:02.763Z,11.40
2022-09-18T20:59:31.949Z,11.40
2022-09-18T21:02:06.609Z,11.40
2022-09-18T21:04:47.643Z,11.40
2022-09-18T21:07:15.827Z,11.40
2022-09-18T21:09:57.628Z,11.40
2022-09-18T21:12:40.044Z,11.30
2022-09-18T21:15:21.253Z,11.40
2022-09-18T21:17:54.041Z,11.30
2022-09-18T21:20:24.759Z,11.30
2022-09-18T21:23:10.404Z,11.30
2022-09-18T21:25:48.680Z,11.30
2022-09-18T21:28:39.266Z,11.30
2022-09-18T21:31:13.063Z,11.30
2022-09-18T21:33:41.834Z,11.30
2022-09-18T21:36:13.687Z,11.30
2022-09-18T21:44:36.903Z,11.20
2022-09-18T21:47:13.285Z,11.20
2022-09-18T21:49:40.842Z,11.20
2022-09-18T21:52:46.062Z,11.20
2022-09-18T21:55:20.863Z,11.20
2022-09-18T21:57:48.352Z,11.10
2022-09-18T22:00:15.808Z,11.10
2022-09-18T22:02:55.178Z,11.10
2022-09-18T22:05:22.533Z,11.10
2022-09-18T22:07:49.997Z,11.10
2022-09-18T22:10:17.481Z,11.10
2022-09-18T22:12:44.978Z,11.10
2022-09-18T22:17:55.636Z,11.10
2022-09-18T22:20:30.678Z,11.10
2022-09-18T22:23:00.992Z,11.10
2022-09-18T22:25:31.621Z,11.10
2022-09-18T22:27:59.518Z,11.10
2022-09-18T22:30:29.597Z,11.10
2022-09-18T22:33:02.785Z,11.20
2022-09-18T22:35:29.958Z,11.20
2022-09-18T22:37:57.479Z,11.20
2022-09-18T22:40:26.012Z,11.20
2022-09-18T22:42:58.845Z,11.20
2022-09-18T22:45:26.427Z,11.20
2022-09-18T22:47:59.189Z,11.20
2022-09-18T22:50:32.159Z,11.30
2022-09-18T22:52:59.566Z,11.30
2022-09-18T22:55:28.834Z,11.30
2022-09-18T22:58:09.863Z,11.30
2022-09-18T23:00:42.941Z,11.30
2022-09-18T23:03:10.585Z,11.30
2022-09-18T23:05:40.288Z,11.40
2022-09-18T23:08:08.068Z,11.30
2022-09-18T23:10:35.662Z,11.30
2022-09-18T23:13:09.704Z,11.30
2022-09-18T23:15:37.523Z,11.30
2022-09-18T23:18:05.018Z,11.30
2022-09-18T23:20:32.504Z,11.30
2022-09-18T23:23:03.064Z,11.30
2022-09-18T23:25:30.348Z,11.30
2022-09-18T23:27:57.860Z,11.20
2022-09-18T23:30:27.421Z,11.20
2022-09-18T23:32:55.056Z,11.20
2022-09-18T23:35:31.106Z,11.30
2022-09-18T23:38:03.013Z,11.20
2022-09-18T23:40:31.596Z,11.30
2022-09-18T23:42:58.977Z,11.30
2022-09-18T23:45:26.847Z,11.40
2022-09-18T23:47:53.963Z,11.40
2022-09-18T23:50:26.798Z,11.40
2022-09-18T23:54:11.642Z,11.40
2022-09-18T23:56:46.605Z,11.40
2022-09-18T23:59:30.455Z,11.40
